sensor_id;sensor_type;location;lat;lon;timestamp;temperature;humidity
78467;SHT31;67759;51.972;5.650;2023-09-30T00:00:45;19.9;52.7
78467;SHT31;67759;51.972;5.650;2023-09-30T00:03:15;19.9;51.3
78467;SHT31;67759;51.972;5.650;2023-09-30T00:05:44;19.8;53.0
78467;SHT31;67759;51.972;5.650;2023-09-30T00:08:15;19.8;53.7
78467;SHT31;67759;51.972;5.650;2023-09-30T00:10:44;19.8;52.9
78467;SHT31;67759;51.972;5.650;2023-09-30T00:13:14;19.8;51.4
78467;SHT31;67759;51.972;5.650;2023-09-30T00:15:43;19.7;51.1
78467;SHT31;67759;51.972;5.650;2023-09-30T00:18:13;19.7;52.7
78467;SHT31;67759;51.972;5.650;2023-09-30T00:20:43;19.7;52.6
78467;SHT31;67759;51.972;5.650;2023-09-30T00:23:12;19.6;54.0
78467;SHT31;67759;51.972;5.650;2023-09-30T00:25:41;19.6;53.8
78467;SHT31;67759;51.972;5.650;2023-09-30T00:28:11;19.5;53.6
78467;SHT31;67759;51.972;5.650;2023-09-30T00:30:42;19.5;53.8
78467;SHT31;67759;51.972;5.650;2023-09-30T00:33:14;19.4;53.1
78467;SHT31;67759;51.972;5.650;2023-09-30T00:35:46;19.4;52.5
78467;SHT31;67759;51.972;5.650;2023-09-30T00:38:15;19.4;52.9
78467;SHT31;67759;51.972;5.650;2023-09-30T00:40:49;19.4;53.0
78467;SHT31;67759;51.972;5.650;2023-09-30T00:43:22;19.4;53.6
78467;SHT31;67759;51.972;5.650;2023-09-30T00:46:01;19.5;53.8
78467;SHT31;67759;51.972;5.650;2023-09-30T00:48:31;19.4;54.9
78467;SHT31;67759;51.972;5.650;2023-09-30T00:51:03;19.4;53.7
78467;SHT31;67759;51.972;5.650;2023-09-30T00:53:37;19.4;55.5
78467;SHT31;67759;51.972;5.650;2023-09-30T00:56:09;19.3;55.7
78467;SHT31;67759;51.972;5.650;2023-09-30T00:58:40;19.3;54.3
78467;SHT31;67759;51.972;5.650;2023-09-30T01:01:10;19.3;55.5
78467;SHT31;67759;51.972;5.650;2023-09-30T01:03:42;19.3;55.6
78467;SHT31;67759;51.972;5.650;2023-09-30T01:06:12;19.3;54.5
78467;SHT31;67759;51.972;5.650;2023-09-30T01:08:42;19.3;53.6
78467;SHT31;67759;51.972;5.650;2023-09-30T01:11:11;19.3;53.4
78467;SHT31;67759;51.972;5.650;2023-09-30T01:13:41;19.3;53.1
78467;SHT31;67759;51.972;5.650;2023-09-30T01:16:12;19.3;54.1
78467;SHT31;67759;51.972;5.650;2023-09-30T01:18:41;19.2;54.4
78467;SHT31;67759;51.972;5.650;2023-09-30T01:21:11;19.2;54.4
78467;SHT31;67759;51.972;5.650;2023-09-30T01:23:41;19.2;53.5
78467;SHT31;67759;51.972;5.650;2023-09-30T01:26:15;19.1;54.0
78467;SHT31;67759;51.972;5.650;2023-09-30T01:28:46;19.1;53.6
78467;SHT31;67759;51.972;5.650;2023-09-30T01:31:16;19.1;54.0
78467;SHT31;67759;51.972;5.650;2023-09-30T01:33:45;19.1;54.3
78467;SHT31;67759;51.972;5.650;2023-09-30T01:36:15;19.1;53.6
78467;SHT31;67759;51.972;5.650;2023-09-30T01:38:45;19.0;54.0
78467;SHT31;67759;51.972;5.650;2023-09-30T01:41:15;19.1;53.4
78467;SHT31;67759;51.972;5.650;2023-09-30T01:43:45;19.1;53.8
78467;SHT31;67759;51.972;5.650;2023-09-30T01:46:14;19.1;54.3
78467;SHT31;67759;51.972;5.650;2023-09-30T01:48:44;19.1;56.0
78467;SHT31;67759;51.972;5.650;2023-09-30T01:51:14;19.2;54.0
78467;SHT31;67759;51.972;5.650;2023-09-30T01:53:43;19.2;53.4
78467;SHT31;67759;51.972;5.650;2023-09-30T01:56:14;19.2;54.1
78467;SHT31;67759;51.972;5.650;2023-09-30T01:58:44;19.2;53.8
78467;SHT31;67759;51.972;5.650;2023-09-30T02:01:13;19.2;52.4
78467;SHT31;67759;51.972;5.650;2023-09-30T02:03:44;19.2;52.3
78467;SHT31;67759;51.972;5.650;2023-09-30T02:06:14;19.2;52.2
78467;SHT31;67759;51.972;5.650;2023-09-30T02:08:44;19.2;52.1
78467;SHT31;67759;51.972;5.650;2023-09-30T02:11:15;19.2;52.5
78467;SHT31;67759;51.972;5.650;2023-09-30T02:13:45;19.2;52.7
78467;SHT31;67759;51.972;5.650;2023-09-30T02:16:14;19.2;53.8
78467;SHT31;67759;51.972;5.650;2023-09-30T02:18:44;19.3;54.9
78467;SHT31;67759;51.972;5.650;2023-09-30T02:21:16;19.4;55.6
78467;SHT31;67759;51.972;5.650;2023-09-30T02:23:47;19.4;55.1
78467;SHT31;67759;51.972;5.650;2023-09-30T02:26:17;19.3;54.6
78467;SHT31;67759;51.972;5.650;2023-09-30T02:28:46;19.3;55.6
78467;SHT31;67759;51.972;5.650;2023-09-30T02:31:16;19.3;56.3
78467;SHT31;67759;51.972;5.650;2023-09-30T02:33:46;19.3;56.4
78467;SHT31;67759;51.972;5.650;2023-09-30T02:36:16;19.3;56.5
78467;SHT31;67759;51.972;5.650;2023-09-30T02:38:46;19.2;55.9
78467;SHT31;67759;51.972;5.650;2023-09-30T02:41:16;19.2;53.4
78467;SHT31;67759;51.972;5.650;2023-09-30T02:43:46;19.2;54.0
78467;SHT31;67759;51.972;5.650;2023-09-30T02:46:18;19.2;54.0
78467;SHT31;67759;51.972;5.650;2023-09-30T02:48:47;19.2;55.5
78467;SHT31;67759;51.972;5.650;2023-09-30T02:51:19;19.2;56.6
78467;SHT31;67759;51.972;5.650;2023-09-30T02:53:49;19.2;55.8
78467;SHT31;67759;51.972;5.650;2023-09-30T02:56:19;19.2;57.0
78467;SHT31;67759;51.972;5.650;2023-09-30T02:58:53;19.2;54.9
78467;SHT31;67759;51.972;5.650;2023-09-30T03:01:23;19.2;55.6
78467;SHT31;67759;51.972;5.650;2023-09-30T03:03:54;19.2;56.8
78467;SHT31;67759;51.972;5.650;2023-09-30T03:06:23;19.2;56.9
78467;SHT31;67759;51.972;5.650;2023-09-30T03:08:52;19.2;56.8
78467;SHT31;67759;51.972;5.650;2023-09-30T03:11:22;19.2;56.0
78467;SHT31;67759;51.972;5.650;2023-09-30T03:13:51;19.1;56.3
78467;SHT31;67759;51.972;5.650;2023-09-30T03:16:23;19.1;56.4
78467;SHT31;67759;51.972;5.650;2023-09-30T03:18:55;19.1;57.0
78467;SHT31;67759;51.972;5.650;2023-09-30T03:21:25;19.1;56.3
78467;SHT31;67759;51.972;5.650;2023-09-30T03:23:54;19.1;56.1
78467;SHT31;67759;51.972;5.650;2023-09-30T03:26:26;19.0;57.0
78467;SHT31;67759;51.972;5.650;2023-09-30T03:28:58;19.0;57.0
78467;SHT31;67759;51.972;5.650;2023-09-30T03:31:28;19.1;56.8
78467;SHT31;67759;51.972;5.650;2023-09-30T03:33:57;19.1;57.0
78467;SHT31;67759;51.972;5.650;2023-09-30T03:36:27;19.1;56.2
78467;SHT31;67759;51.972;5.650;2023-09-30T03:38:58;19.1;55.9
78467;SHT31;67759;51.972;5.650;2023-09-30T03:41:31;19.1;56.6
78467;SHT31;67759;51.972;5.650;2023-09-30T03:44:02;19.1;56.2
78467;SHT31;67759;51.972;5.650;2023-09-30T03:46:32;19.1;56.3
78467;SHT31;67759;51.972;5.650;2023-09-30T03:49:05;19.1;57.1
78467;SHT31;67759;51.972;5.650;2023-09-30T03:51:36;19.1;56.1
78467;SHT31;67759;51.972;5.650;2023-09-30T03:54:07;19.2;56.5
78467;SHT31;67759;51.972;5.650;2023-09-30T03:56:37;19.2;55.9
78467;SHT31;67759;51.972;5.650;2023-09-30T03:59:08;19.1;56.5
78467;SHT31;67759;51.972;5.650;2023-09-30T04:01:38;19.1;56.4
78467;SHT31;67759;51.972;5.650;2023-09-30T04:04:10;19.1;56.7
78467;SHT31;67759;51.972;5.650;2023-09-30T04:06:39;19.0;57.1
78467;SHT31;67759;51.972;5.650;2023-09-30T04:09:10;19.0;56.3
78467;SHT31;67759;51.972;5.650;2023-09-30T04:11:41;19.0;57.3
78467;SHT31;67759;51.972;5.650;2023-09-30T04:14:11;18.9;57.6
78467;SHT31;67759;51.972;5.650;2023-09-30T04:16:41;18.9;57.6
78467;SHT31;67759;51.972;5.650;2023-09-30T04:19:13;18.9;57.6
78467;SHT31;67759;51.972;5.650;2023-09-30T04:21:43;18.8;58.0
78467;SHT31;67759;51.972;5.650;2023-09-30T04:24:14;18.8;58.3
78467;SHT31;67759;51.972;5.650;2023-09-30T04:26:43;18.8;58.4
78467;SHT31;67759;51.972;5.650;2023-09-30T04:29:15;18.8;58.5
78467;SHT31;67759;51.972;5.650;2023-09-30T04:31:46;18.8;58.4
78467;SHT31;67759;51.972;5.650;2023-09-30T04:34:15;18.8;58.1
78467;SHT31;67759;51.972;5.650;2023-09-30T04:36:45;18.8;58.5
78467;SHT31;67759;51.972;5.650;2023-09-30T04:39:15;18.8;58.0
78467;SHT31;67759;51.972;5.650;2023-09-30T04:41:47;18.7;58.5
78467;SHT31;67759;51.972;5.650;2023-09-30T04:44:16;18.7;58.3
78467;SHT31;67759;51.972;5.650;2023-09-30T04:46:46;18.8;58.5
78467;SHT31;67759;51.972;5.650;2023-09-30T04:49:16;18.8;58.7
78467;SHT31;67759;51.972;5.650;2023-09-30T04:51:49;18.8;58.7
78467;SHT31;67759;51.972;5.650;2023-09-30T04:54:23;18.9;58.3
78467;SHT31;67759;51.972;5.650;2023-09-30T04:56:53;19.0;56.0
78467;SHT31;67759;51.972;5.650;2023-09-30T04:59:22;19.0;56.1
78467;SHT31;67759;51.972;5.650;2023-09-30T05:01:54;19.0;56.7
78467;SHT31;67759;51.972;5.650;2023-09-30T05:04:24;19.0;57.2
78467;SHT31;67759;51.972;5.650;2023-09-30T05:06:53;19.0;57.1
78467;SHT31;67759;51.972;5.650;2023-09-30T05:09:23;19.1;56.8
78467;SHT31;67759;51.972;5.650;2023-09-30T05:11:53;19.1;57.1
78467;SHT31;67759;51.972;5.650;2023-09-30T05:14:25;19.1;56.8
78467;SHT31;67759;51.972;5.650;2023-09-30T05:16:57;19.1;56.9
78467;SHT31;67759;51.972;5.650;2023-09-30T05:19:28;19.1;57.2
78467;SHT31;67759;51.972;5.650;2023-09-30T05:21:59;19.2;57.2
78467;SHT31;67759;51.972;5.650;2023-09-30T05:24:30;19.2;57.0
78467;SHT31;67759;51.972;5.650;2023-09-30T05:26:59;19.3;56.6
78467;SHT31;67759;51.972;5.650;2023-09-30T05:29:29;19.3;56.9
78467;SHT31;67759;51.972;5.650;2023-09-30T05:32:00;19.2;56.7
78467;SHT31;67759;51.972;5.650;2023-09-30T05:34:30;19.2;56.6
78467;SHT31;67759;51.972;5.650;2023-09-30T05:37:00;19.1;56.8
78467;SHT31;67759;51.972;5.650;2023-09-30T05:39:31;19.1;57.3
78467;SHT31;67759;51.972;5.650;2023-09-30T05:42:01;19.0;57.5
78467;SHT31;67759;51.972;5.650;2023-09-30T05:44:34;19.0;57.7
78467;SHT31;67759;51.972;5.650;2023-09-30T05:47:04;19.0;57.7
78467;SHT31;67759;51.972;5.650;2023-09-30T05:49:34;19.0;57.7
78467;SHT31;67759;51.972;5.650;2023-09-30T05:52:04;19.1;57.5
78467;SHT31;67759;51.972;5.650;2023-09-30T05:54:37;19.2;57.0
78467;SHT31;67759;51.972;5.650;2023-09-30T05:57:08;19.3;56.8
78467;SHT31;67759;51.972;5.650;2023-09-30T05:59:41;19.4;56.4
78467;SHT31;67759;51.972;5.650;2023-09-30T06:02:10;19.4;56.2
78467;SHT31;67759;51.972;5.650;2023-09-30T06:04:41;19.3;55.4
78467;SHT31;67759;51.972;5.650;2023-09-30T06:07:12;19.3;56.3
78467;SHT31;67759;51.972;5.650;2023-09-30T06:09:42;19.3;54.8
78467;SHT31;67759;51.972;5.650;2023-09-30T06:12:12;19.2;56.2
78467;SHT31;67759;51.972;5.650;2023-09-30T06:14:41;19.1;56.3
78467;SHT31;67759;51.972;5.650;2023-09-30T06:17:12;19.1;56.8
78467;SHT31;67759;51.972;5.650;2023-09-30T06:19:42;19.0;57.3
78467;SHT31;67759;51.972;5.650;2023-09-30T06:22:11;19.0;56.5
78467;SHT31;67759;51.972;5.650;2023-09-30T06:24:41;18.9;57.6
78467;SHT31;67759;51.972;5.650;2023-09-30T06:27:14;18.9;57.8
78467;SHT31;67759;51.972;5.650;2023-09-30T06:29:43;18.8;56.6
78467;SHT31;67759;51.972;5.650;2023-09-30T06:32:15;18.8;58.0
78467;SHT31;67759;51.972;5.650;2023-09-30T06:34:45;18.8;58.6
78467;SHT31;67759;51.972;5.650;2023-09-30T06:37:15;18.8;58.5
78467;SHT31;67759;51.972;5.650;2023-09-30T06:39:47;18.8;58.7
78467;SHT31;67759;51.972;5.650;2023-09-30T06:42:17;18.8;58.9
78467;SHT31;67759;51.972;5.650;2023-09-30T06:44:46;18.9;58.9
78467;SHT31;67759;51.972;5.650;2023-09-30T06:47:16;18.9;59.2
78467;SHT31;67759;51.972;5.650;2023-09-30T06:49:48;19.0;58.7
78467;SHT31;67759;51.972;5.650;2023-09-30T06:52:18;19.1;58.5
78467;SHT31;67759;51.972;5.650;2023-09-30T06:54:49;19.1;58.4
78467;SHT31;67759;51.972;5.650;2023-09-30T06:57:20;19.2;58.7
78467;SHT31;67759;51.972;5.650;2023-09-30T06:59:49;19.3;58.1
78467;SHT31;67759;51.972;5.650;2023-09-30T07:02:19;19.3;57.3
78467;SHT31;67759;51.972;5.650;2023-09-30T07:04:51;19.3;57.3
78467;SHT31;67759;51.972;5.650;2023-09-30T07:07:21;19.4;58.0
78467;SHT31;67759;51.972;5.650;2023-09-30T07:09:53;19.5;57.3
78467;SHT31;67759;51.972;5.650;2023-09-30T07:12:23;19.6;57.1
78467;SHT31;67759;51.972;5.650;2023-09-30T07:14:55;19.6;57.0
78467;SHT31;67759;51.972;5.650;2023-09-30T07:17:24;19.7;57.0
78467;SHT31;67759;51.972;5.650;2023-09-30T07:19:54;19.7;57.3
78467;SHT31;67759;51.972;5.650;2023-09-30T07:22:25;19.7;57.6
78467;SHT31;67759;51.972;5.650;2023-09-30T07:24:57;19.8;57.7
78467;SHT31;67759;51.972;5.650;2023-09-30T07:27:28;19.8;57.7
78467;SHT31;67759;51.972;5.650;2023-09-30T07:29:59;19.9;57.6
78467;SHT31;67759;51.972;5.650;2023-09-30T07:32:33;20.0;57.6
78467;SHT31;67759;51.972;5.650;2023-09-30T07:35:20;20.2;57.3
78467;SHT31;67759;51.972;5.650;2023-09-30T07:37:52;20.3;56.6
78467;SHT31;67759;51.972;5.650;2023-09-30T07:40:23;20.4;56.4
78467;SHT31;67759;51.972;5.650;2023-09-30T07:42:53;20.4;55.9
78467;SHT31;67759;51.972;5.650;2023-09-30T07:45:22;20.4;56.0
78467;SHT31;67759;51.972;5.650;2023-09-30T07:47:52;20.4;56.2
78467;SHT31;67759;51.972;5.650;2023-09-30T07:50:21;20.4;56.5
78467;SHT31;67759;51.972;5.650;2023-09-30T07:52:51;20.4;55.8
78467;SHT31;67759;51.972;5.650;2023-09-30T07:55:20;20.4;56.7
78467;SHT31;67759;51.972;5.650;2023-09-30T07:57:50;20.3;56.5
78467;SHT31;67759;51.972;5.650;2023-09-30T08:00:22;20.3;57.1
78467;SHT31;67759;51.972;5.650;2023-09-30T08:02:51;20.3;57.3
78467;SHT31;67759;51.972;5.650;2023-09-30T08:05:21;20.3;57.1
78467;SHT31;67759;51.972;5.650;2023-09-30T08:07:50;20.3;57.6
78467;SHT31;67759;51.972;5.650;2023-09-30T08:10:21;20.3;58.0
78467;SHT31;67759;51.972;5.650;2023-09-30T08:12:50;20.4;58.0
78467;SHT31;67759;51.972;5.650;2023-09-30T08:15:20;20.4;57.9
78467;SHT31;67759;51.972;5.650;2023-09-30T08:17:49;20.4;58.0
78467;SHT31;67759;51.972;5.650;2023-09-30T08:20:19;20.5;57.8
78467;SHT31;67759;51.972;5.650;2023-09-30T08:22:49;20.5;58.4
78467;SHT31;67759;51.972;5.650;2023-09-30T08:25:19;20.5;58.0
78467;SHT31;67759;51.972;5.650;2023-09-30T08:27:49;20.6;58.3
78467;SHT31;67759;51.972;5.650;2023-09-30T08:30:19;20.7;58.2
78467;SHT31;67759;51.972;5.650;2023-09-30T08:32:48;20.9;57.3
78467;SHT31;67759;51.972;5.650;2023-09-30T08:35:20;21.0;57.3
78467;SHT31;67759;51.972;5.650;2023-09-30T08:37:49;21.1;57.0
78467;SHT31;67759;51.972;5.650;2023-09-30T08:40:21;21.2;57.3
78467;SHT31;67759;51.972;5.650;2023-09-30T08:42:53;21.2;57.2
78467;SHT31;67759;51.972;5.650;2023-09-30T08:45:23;21.3;56.5
78467;SHT31;67759;51.972;5.650;2023-09-30T08:47:55;21.4;56.4
78467;SHT31;67759;51.972;5.650;2023-09-30T08:50:24;21.4;56.2
78467;SHT31;67759;51.972;5.650;2023-09-30T08:52:55;21.4;56.8
78467;SHT31;67759;51.972;5.650;2023-09-30T08:55:27;21.4;57.2
78467;SHT31;67759;51.972;5.650;2023-09-30T08:57:57;21.5;56.8
78467;SHT31;67759;51.972;5.650;2023-09-30T09:00:29;21.7;56.3
78467;SHT31;67759;51.972;5.650;2023-09-30T09:03:01;21.9;55.7
78467;SHT31;67759;51.972;5.650;2023-09-30T09:05:31;22.0;55.3
78467;SHT31;67759;51.972;5.650;2023-09-30T09:08:01;22.0;55.7
78467;SHT31;67759;51.972;5.650;2023-09-30T09:10:30;22.1;55.2
78467;SHT31;67759;51.972;5.650;2023-09-30T09:13:01;22.2;54.5
78467;SHT31;67759;51.972;5.650;2023-09-30T09:15:33;22.2;54.4
78467;SHT31;67759;51.972;5.650;2023-09-30T09:18:03;22.2;54.9
78467;SHT31;67759;51.972;5.650;2023-09-30T09:20:33;22.3;55.4
78467;SHT31;67759;51.972;5.650;2023-09-30T09:23:06;22.4;55.0
78467;SHT31;67759;51.972;5.650;2023-09-30T09:25:39;22.5;54.7
78467;SHT31;67759;51.972;5.650;2023-09-30T09:28:08;22.6;54.2
78467;SHT31;67759;51.972;5.650;2023-09-30T09:30:38;22.7;54.3
78467;SHT31;67759;51.972;5.650;2023-09-30T09:33:11;22.8;54.8
78467;SHT31;67759;51.972;5.650;2023-09-30T09:35:40;23.1;53.6
78467;SHT31;67759;51.972;5.650;2023-09-30T09:38:15;23.5;52.4
78467;SHT31;67759;51.972;5.650;2023-09-30T09:40:44;23.7;52.3
78467;SHT31;67759;51.972;5.650;2023-09-30T09:43:14;23.9;51.8
78467;SHT31;67759;51.972;5.650;2023-09-30T09:45:44;24.0;51.4
78467;SHT31;67759;51.972;5.650;2023-09-30T09:48:15;24.0;50.7
78467;SHT31;67759;51.972;5.650;2023-09-30T09:50:47;24.1;50.8
78467;SHT31;67759;51.972;5.650;2023-09-30T09:53:20;24.1;51.3
78467;SHT31;67759;51.972;5.650;2023-09-30T09:55:51;24.2;51.0
78467;SHT31;67759;51.972;5.650;2023-09-30T09:58:22;24.2;51.4
78467;SHT31;67759;51.972;5.650;2023-09-30T10:00:53;24.3;50.9
78467;SHT31;67759;51.972;5.650;2023-09-30T10:03:23;24.5;50.5
78467;SHT31;67759;51.972;5.650;2023-09-30T10:05:53;24.7;50.4
78467;SHT31;67759;51.972;5.650;2023-09-30T10:08:30;24.8;50.4
78467;SHT31;67759;51.972;5.650;2023-09-30T10:11:02;24.9;49.4
78467;SHT31;67759;51.972;5.650;2023-09-30T10:13:51;24.9;49.1
78467;SHT31;67759;51.972;5.650;2023-09-30T10:16:48;25.0;49.0
78467;SHT31;67759;51.972;5.650;2023-09-30T10:19:21;25.1;48.9
78467;SHT31;67759;51.972;5.650;2023-09-30T10:22:23;25.2;48.1
78467;SHT31;67759;51.972;5.650;2023-09-30T10:24:55;25.3;47.3
78467;SHT31;67759;51.972;5.650;2023-09-30T10:27:35;25.4;47.0
78467;SHT31;67759;51.972;5.650;2023-09-30T10:30:14;25.4;47.4
78467;SHT31;67759;51.972;5.650;2023-09-30T10:33:09;25.3;48.1
78467;SHT31;67759;51.972;5.650;2023-09-30T10:35:46;25.3;47.9
78467;SHT31;67759;51.972;5.650;2023-09-30T10:38:40;25.4;47.6
78467;SHT31;67759;51.972;5.650;2023-09-30T10:41:13;25.5;48.4
78467;SHT31;67759;51.972;5.650;2023-09-30T10:43:46;25.7;47.0
78467;SHT31;67759;51.972;5.650;2023-09-30T10:46:33;25.9;47.2
78467;SHT31;67759;51.972;5.650;2023-09-30T10:49:31;26.1;46.6
78467;SHT31;67759;51.972;5.650;2023-09-30T10:52:03;26.4;45.1
78467;SHT31;67759;51.972;5.650;2023-09-30T10:54:33;26.5;44.7
78467;SHT31;67759;51.972;5.650;2023-09-30T10:57:03;26.6;44.5
78467;SHT31;67759;51.972;5.650;2023-09-30T10:59:33;26.7;44.8
78467;SHT31;67759;51.972;5.650;2023-09-30T11:02:05;26.7;45.2
78467;SHT31;67759;51.972;5.650;2023-09-30T11:04:47;26.8;43.9
78467;SHT31;67759;51.972;5.650;2023-09-30T11:07:22;26.8;42.8
78467;SHT31;67759;51.972;5.650;2023-09-30T11:09:53;26.9;41.9
78467;SHT31;67759;51.972;5.650;2023-09-30T11:12:23;27.0;40.9
78467;SHT31;67759;51.972;5.650;2023-09-30T11:15:01;27.1;41.9
78467;SHT31;67759;51.972;5.650;2023-09-30T11:17:31;27.2;41.9
78467;SHT31;67759;51.972;5.650;2023-09-30T11:20:03;27.3;41.8
78467;SHT31;67759;51.972;5.650;2023-09-30T11:22:34;27.4;41.1
78467;SHT31;67759;51.972;5.650;2023-09-30T11:25:05;27.5;39.5
78467;SHT31;67759;51.972;5.650;2023-09-30T11:27:34;27.6;38.8
78467;SHT31;67759;51.972;5.650;2023-09-30T11:30:04;27.7;38.6
78467;SHT31;67759;51.972;5.650;2023-09-30T11:32:36;27.8;37.7
78467;SHT31;67759;51.972;5.650;2023-09-30T11:35:08;27.8;38.5
78467;SHT31;67759;51.972;5.650;2023-09-30T11:37:41;27.8;38.7
78467;SHT31;67759;51.972;5.650;2023-09-30T11:40:14;27.8;39.2
78467;SHT31;67759;51.972;5.650;2023-09-30T11:43:09;27.9;39.0
78467;SHT31;67759;51.972;5.650;2023-09-30T11:45:39;28.0;38.6
78467;SHT31;67759;51.972;5.650;2023-09-30T11:48:18;28.0;36.1
78467;SHT31;67759;51.972;5.650;2023-09-30T11:50:49;27.9;36.8
78467;SHT31;67759;51.972;5.650;2023-09-30T11:53:21;27.8;37.5
78467;SHT31;67759;51.972;5.650;2023-09-30T11:55:50;27.6;37.7
78467;SHT31;67759;51.972;5.650;2023-09-30T11:58:24;27.5;38.5
78467;SHT31;67759;51.972;5.650;2023-09-30T12:00:55;27.4;38.2
78467;SHT31;67759;51.972;5.650;2023-09-30T12:03:27;27.3;40.5
78467;SHT31;67759;51.972;5.650;2023-09-30T12:05:57;27.2;39.7
78467;SHT31;67759;51.972;5.650;2023-09-30T12:08:29;27.1;39.8
78467;SHT31;67759;51.972;5.650;2023-09-30T12:10:59;27.0;39.8
78467;SHT31;67759;51.972;5.650;2023-09-30T12:13:29;26.9;39.6
78467;SHT31;67759;51.972;5.650;2023-09-30T12:15:58;26.8;40.2
78467;SHT31;67759;51.972;5.650;2023-09-30T12:18:30;26.8;40.0
78467;SHT31;67759;51.972;5.650;2023-09-30T12:21:00;26.8;39.6
78467;SHT31;67759;51.972;5.650;2023-09-30T12:23:30;26.8;40.1
78467;SHT31;67759;51.972;5.650;2023-09-30T12:26:02;26.8;40.1
78467;SHT31;67759;51.972;5.650;2023-09-30T12:28:33;26.8;40.6
78467;SHT31;67759;51.972;5.650;2023-09-30T12:31:05;26.8;39.9
78467;SHT31;67759;51.972;5.650;2023-09-30T12:33:35;26.8;39.5
78467;SHT31;67759;51.972;5.650;2023-09-30T12:36:08;26.9;38.6
78467;SHT31;67759;51.972;5.650;2023-09-30T12:38:40;26.9;38.7
78467;SHT31;67759;51.972;5.650;2023-09-30T12:41:11;27.0;38.5
78467;SHT31;67759;51.972;5.650;2023-09-30T12:43:41;27.0;37.3
78467;SHT31;67759;51.972;5.650;2023-09-30T12:46:12;27.1;37.3
78467;SHT31;67759;51.972;5.650;2023-09-30T12:48:43;27.2;37.4
78467;SHT31;67759;51.972;5.650;2023-09-30T12:51:12;27.2;38.2
78467;SHT31;67759;51.972;5.650;2023-09-30T12:53:44;27.2;37.8
78467;SHT31;67759;51.972;5.650;2023-09-30T12:56:14;27.4;37.0
78467;SHT31;67759;51.972;5.650;2023-09-30T12:58:44;27.5;37.2
78467;SHT31;67759;51.972;5.650;2023-09-30T13:01:13;27.6;36.3
78467;SHT31;67759;51.972;5.650;2023-09-30T13:03:46;27.7;36.5
78467;SHT31;67759;51.972;5.650;2023-09-30T13:06:16;27.7;36.1
78467;SHT31;67759;51.972;5.650;2023-09-30T13:08:46;27.6;36.9
78467;SHT31;67759;51.972;5.650;2023-09-30T13:11:16;27.6;36.7
78467;SHT31;67759;51.972;5.650;2023-09-30T13:13:49;27.7;38.1
78467;SHT31;67759;51.972;5.650;2023-09-30T13:16:19;27.7;36.1
78467;SHT31;67759;51.972;5.650;2023-09-30T13:18:49;27.7;34.9
78467;SHT31;67759;51.972;5.650;2023-09-30T13:21:19;27.6;37.0
78467;SHT31;67759;51.972;5.650;2023-09-30T13:23:49;27.5;37.0
78467;SHT31;67759;51.972;5.650;2023-09-30T13:26:19;27.5;36.8
78467;SHT31;67759;51.972;5.650;2023-09-30T13:28:49;27.5;36.2
78467;SHT31;67759;51.972;5.650;2023-09-30T13:31:19;27.4;36.7
78467;SHT31;67759;51.972;5.650;2023-09-30T13:33:49;27.4;36.5
78467;SHT31;67759;51.972;5.650;2023-09-30T13:36:18;27.4;38.0
78467;SHT31;67759;51.972;5.650;2023-09-30T13:38:48;27.3;38.4
78467;SHT31;67759;51.972;5.650;2023-09-30T13:41:19;27.3;36.5
78467;SHT31;67759;51.972;5.650;2023-09-30T13:43:49;27.4;37.0
78467;SHT31;67759;51.972;5.650;2023-09-30T13:46:18;27.5;38.3
78467;SHT31;67759;51.972;5.650;2023-09-30T13:48:52;27.7;37.8
78467;SHT31;67759;51.972;5.650;2023-09-30T13:51:22;27.9;37.7
78467;SHT31;67759;51.972;5.650;2023-09-30T13:53:53;27.9;37.0
78467;SHT31;67759;51.972;5.650;2023-09-30T13:56:23;28.0;36.9
78467;SHT31;67759;51.972;5.650;2023-09-30T13:58:52;28.0;37.9
78467;SHT31;67759;51.972;5.650;2023-09-30T14:01:22;28.0;36.3
78467;SHT31;67759;51.972;5.650;2023-09-30T14:03:52;28.0;35.5
78467;SHT31;67759;51.972;5.650;2023-09-30T14:06:24;28.0;35.3
78467;SHT31;67759;51.972;5.650;2023-09-30T14:08:54;27.9;36.0
78467;SHT31;67759;51.972;5.650;2023-09-30T14:11:23;27.8;35.8
78467;SHT31;67759;51.972;5.650;2023-09-30T14:13:53;27.7;35.8
78467;SHT31;67759;51.972;5.650;2023-09-30T14:16:22;27.7;36.1
78467;SHT31;67759;51.972;5.650;2023-09-30T14:18:52;27.6;37.8
78467;SHT31;67759;51.972;5.650;2023-09-30T14:21:24;27.6;36.5
78467;SHT31;67759;51.972;5.650;2023-09-30T14:23:53;27.6;36.9
78467;SHT31;67759;51.972;5.650;2023-09-30T14:26:23;27.6;35.8
78467;SHT31;67759;51.972;5.650;2023-09-30T14:28:52;27.7;37.0
78467;SHT31;67759;51.972;5.650;2023-09-30T14:31:22;27.7;35.9
78467;SHT31;67759;51.972;5.650;2023-09-30T14:33:51;27.7;36.5
78467;SHT31;67759;51.972;5.650;2023-09-30T14:36:21;27.8;36.2
78467;SHT31;67759;51.972;5.650;2023-09-30T14:38:52;27.8;36.2
78467;SHT31;67759;51.972;5.650;2023-09-30T14:41:23;27.9;36.6
78467;SHT31;67759;51.972;5.650;2023-09-30T14:43:55;27.9;36.7
78467;SHT31;67759;51.972;5.650;2023-09-30T14:46:24;27.9;37.0
78467;SHT31;67759;51.972;5.650;2023-09-30T14:48:55;28.0;36.6
78467;SHT31;67759;51.972;5.650;2023-09-30T14:51:25;28.1;36.3
78467;SHT31;67759;51.972;5.650;2023-09-30T14:53:56;28.1;36.4
78467;SHT31;67759;51.972;5.650;2023-09-30T14:56:26;28.1;36.1
78467;SHT31;67759;51.972;5.650;2023-09-30T14:58:55;28.2;36.9
78467;SHT31;67759;51.972;5.650;2023-09-30T15:01:25;28.2;36.4
78467;SHT31;67759;51.972;5.650;2023-09-30T15:03:56;28.2;36.2
78467;SHT31;67759;51.972;5.650;2023-09-30T15:06:26;28.3;36.9
78467;SHT31;67759;51.972;5.650;2023-09-30T15:08:57;28.3;37.2
78467;SHT31;67759;51.972;5.650;2023-09-30T15:11:26;28.3;37.3
78467;SHT31;67759;51.972;5.650;2023-09-30T15:13:56;28.4;37.3
78467;SHT31;67759;51.972;5.650;2023-09-30T15:16:26;28.5;36.4
78467;SHT31;67759;51.972;5.650;2023-09-30T15:18:56;28.5;36.9
78467;SHT31;67759;51.972;5.650;2023-09-30T15:21:26;28.6;36.2
78467;SHT31;67759;51.972;5.650;2023-09-30T15:23:56;28.5;36.0
78467;SHT31;67759;51.972;5.650;2023-09-30T15:26:27;28.5;36.3
78467;SHT31;67759;51.972;5.650;2023-09-30T15:28:56;28.4;35.5
78467;SHT31;67759;51.972;5.650;2023-09-30T15:31:29;28.2;36.4
78467;SHT31;67759;51.972;5.650;2023-09-30T15:33:59;28.1;36.7
78467;SHT31;67759;51.972;5.650;2023-09-30T15:36:29;28.0;36.6
78467;SHT31;67759;51.972;5.650;2023-09-30T15:38:59;27.9;36.6
78467;SHT31;67759;51.972;5.650;2023-09-30T15:41:28;27.9;37.1
78467;SHT31;67759;51.972;5.650;2023-09-30T15:43:59;27.8;37.5
78467;SHT31;67759;51.972;5.650;2023-09-30T15:46:30;27.7;37.4
78467;SHT31;67759;51.972;5.650;2023-09-30T15:48:59;27.7;37.9
78467;SHT31;67759;51.972;5.650;2023-09-30T15:51:28;27.7;37.4
78467;SHT31;67759;51.972;5.650;2023-09-30T15:53:58;27.8;38.0
78467;SHT31;67759;51.972;5.650;2023-09-30T15:56:27;27.7;37.6
78467;SHT31;67759;51.972;5.650;2023-09-30T15:58:57;27.6;37.7
78467;SHT31;67759;51.972;5.650;2023-09-30T16:01:26;27.5;37.4
78467;SHT31;67759;51.972;5.650;2023-09-30T16:03:56;27.4;38.1
78467;SHT31;67759;51.972;5.650;2023-09-30T16:06:25;27.2;38.5
78467;SHT31;67759;51.972;5.650;2023-09-30T16:08:56;27.1;37.9
78467;SHT31;67759;51.972;5.650;2023-09-30T16:11:26;27.0;38.2
78467;SHT31;67759;51.972;5.650;2023-09-30T16:13:56;26.9;38.6
78467;SHT31;67759;51.972;5.650;2023-09-30T16:16:26;26.7;38.7
78467;SHT31;67759;51.972;5.650;2023-09-30T16:18:55;26.6;39.3
78467;SHT31;67759;51.972;5.650;2023-09-30T16:21:25;26.4;39.5
78467;SHT31;67759;51.972;5.650;2023-09-30T16:23:55;26.3;40.1
78467;SHT31;67759;51.972;5.650;2023-09-30T16:26:27;26.2;40.7